sensor_id;sensor_type;location;lat;lon;timestamp;pressure;altitude;pressure_sealevel;temperature;humidity
70217;BME280;57608;0.000;0.000;2022-08-03T00:01:29;99262.63;;;25.43;38.88
70217;BME280;57608;0.000;0.000;2022-08-03T00:03:55;99260.28;;;25.48;38.85
70217;BME280;57608;0.000;0.000;2022-08-03T00:06:21;99257.22;;;25.51;38.78
70217;BME280;57608;0.000;0.000;2022-08-03T00:08:46;99261.59;;;25.52;38.95
70217;BME280;57608;0.000;0.000;2022-08-03T00:11:12;99257.88;;;25.53;38.84
70217;BME280;57608;0.000;0.000;2022-08-03T00:13:37;99256.22;;;25.52;38.93
70217;BME280;57608;0.000;0.000;2022-08-03T00:16:03;99261.22;;;25.55;38.94
70217;BME280;57608;0.000;0.000;2022-08-03T00:18:28;99259.56;;;25.54;39.00
70217;BME280;57608;0.000;0.000;2022-08-03T00:20:54;99258.38;;;25.56;38.99
70217;BME280;57608;0.000;0.000;2022-08-03T00:23:20;99254.69;;;25.58;38.82
70217;BME280;57608;0.000;0.000;2022-08-03T00:25:45;99265.41;;;25.58;39.10
70217;BME280;57608;0.000;0.000;2022-08-03T00:28:11;99261.91;;;25.57;38.99
70217;BME280;57608;0.000;0.000;2022-08-03T00:30:36;99252.19;;;25.56;38.86
70217;BME280;57608;0.000;0.000;2022-08-03T00:33:02;99253.00;;;25.56;38.85
70217;BME280;57608;0.000;0.000;2022-08-03T00:35:28;99257.53;;;25.56;38.73
70217;BME280;57608;0.000;0.000;2022-08-03T00:37:54;99255.03;;;25.54;38.62
70217;BME280;57608;0.000;0.000;2022-08-03T00:40:20;99255.03;;;25.54;38.74
70217;BME280;57608;0.000;0.000;2022-08-03T00:42:47;99254.19;;;25.54;39.00
70217;BME280;57608;0.000;0.000;2022-08-03T00:45:13;99258.91;;;25.52;39.12
70217;BME280;57608;0.000;0.000;2022-08-03T00:47:38;99249.53;;;25.48;39.07
70217;BME280;57608;0.000;0.000;2022-08-03T00:50:04;99250.72;;;25.45;39.08
70217;BME280;57608;0.000;0.000;2022-08-03T00:52:29;99253.91;;;25.40;39.08
70217;BME280;57608;0.000;0.000;2022-08-03T00:54:55;99247.53;;;25.33;39.42
70217;BME280;57608;0.000;0.000;2022-08-03T00:57:20;99247.56;;;25.25;39.52
70217;BME280;57608;0.000;0.000;2022-08-03T00:59:46;99247.25;;;25.20;39.61
70217;BME280;57608;0.000;0.000;2022-08-03T01:02:12;99244.25;;;25.15;39.74
70217;BME280;57608;0.000;0.000;2022-08-03T01:04:37;99243.94;;;25.10;39.74
70217;BME280;57608;0.000;0.000;2022-08-03T01:07:11;99244.28;;;25.06;40.01
70217;BME280;57608;0.000;0.000;2022-08-03T01:09:57;99242.28;;;25.00;40.21
70217;BME280;57608;0.000;0.000;2022-08-03T01:12:34;99240.94;;;24.96;40.39
70217;BME280;57608;0.000;0.000;2022-08-03T01:15:28;99248.47;;;25.01;40.40
70217;BME280;57608;0.000;0.000;2022-08-03T01:18:07;99246.47;;;25.03;40.29
70217;BME280;57608;0.000;0.000;2022-08-03T01:20:36;99240.59;;;25.07;40.32
70217;BME280;57608;0.000;0.000;2022-08-03T01:23:45;99247.47;;;25.10;40.14
70217;BME280;57608;0.000;0.000;2022-08-03T01:29:07;99247.28;;;25.12;40.14
70217;BME280;57608;0.000;0.000;2022-08-03T01:31:48;99241.28;;;25.01;40.46
70217;BME280;57608;0.000;0.000;2022-08-03T01:34:19;99242.63;;;24.97;40.51
70217;BME280;57608;0.000;0.000;2022-08-03T01:36:51;99244.63;;;24.95;40.84
70217;BME280;57608;0.000;0.000;2022-08-03T01:39:18;99243.97;;;25.01;40.61
70217;BME280;57608;0.000;0.000;2022-08-03T01:41:50;99247.28;;;25.03;40.42
70217;BME280;57608;0.000;0.000;2022-08-03T01:44:19;99243.28;;;25.07;40.65
70217;BME280;57608;0.000;0.000;2022-08-03T01:46:49;99245.59;;;25.11;40.47
70217;BME280;57608;0.000;0.000;2022-08-03T01:49:16;99247.94;;;25.14;40.66
70217;BME280;57608;0.000;0.000;2022-08-03T01:51:44;99247.59;;;25.17;40.29
70217;BME280;57608;0.000;0.000;2022-08-03T01:54:12;99250.94;;;25.19;40.46
70217;BME280;57608;0.000;0.000;2022-08-03T01:56:39;99244.56;;;25.20;40.42
70217;BME280;57608;0.000;0.000;2022-08-03T01:59:08;99259.81;;;25.19;40.54
70217;BME280;57608;0.000;0.000;2022-08-03T02:01:36;99255.28;;;25.20;40.51
70217;BME280;57608;0.000;0.000;2022-08-03T02:04:04;99257.63;;;25.23;40.37
70217;BME280;57608;0.000;0.000;2022-08-03T02:06:32;99253.94;;;25.24;40.37
70217;BME280;57608;0.000;0.000;2022-08-03T02:08:59;99260.16;;;25.24;40.41
70217;BME280;57608;0.000;0.000;2022-08-03T02:11:27;99255.63;;;25.25;40.52
70217;BME280;57608;0.000;0.000;2022-08-03T02:13:57;99263.66;;;25.25;40.67
70217;BME280;57608;0.000;0.000;2022-08-03T02:16:25;99259.13;;;25.26;40.33
70217;BME280;57608;0.000;0.000;2022-08-03T02:18:54;99261.97;;;25.24;40.40
70217;BME280;57608;0.000;0.000;2022-08-03T02:21:21;99264.47;;;25.26;40.36
70217;BME280;57608;0.000;0.000;2022-08-03T02:23:47;99268.00;;;25.26;40.08
70217;BME280;57608;0.000;0.000;2022-08-03T02:26:15;99260.97;;;25.25;40.45
70217;BME280;57608;0.000;0.000;2022-08-03T02:28:44;99263.34;;;25.20;40.41
70217;BME280;57608;0.000;0.000;2022-08-03T02:31:16;99266.06;;;25.12;40.54
70217;BME280;57608;0.000;0.000;2022-08-03T02:33:48;99264.41;;;25.02;40.96
70217;BME280;57608;0.000;0.000;2022-08-03T02:36:22;99269.56;;;24.96;40.78
70217;BME280;57608;0.000;0.000;2022-08-03T02:38:53;99263.06;;;24.90;41.13
70217;BME280;57608;0.000;0.000;2022-08-03T02:41:27;99269.94;;;24.84;41.22
70217;BME280;57608;0.000;0.000;2022-08-03T02:43:55;99274.81;;;24.81;41.47
70217;BME280;57608;0.000;0.000;2022-08-03T02:46:26;99271.78;;;24.76;41.43
70217;BME280;57608;0.000;0.000;2022-08-03T02:48:54;99275.47;;;24.74;41.39
70217;BME280;57608;0.000;0.000;2022-08-03T02:51:21;99268.94;;;24.77;41.17
70217;BME280;57608;0.000;0.000;2022-08-03T02:53:47;99278.31;;;24.81;41.48
70217;BME280;57608;0.000;0.000;2022-08-03T02:56:14;99267.09;;;24.86;41.36
70217;BME280;57608;0.000;0.000;2022-08-03T02:58:42;99277.47;;;24.89;41.55
70217;BME280;57608;0.000;0.000;2022-08-03T03:01:10;99270.94;;;24.91;41.49
70217;BME280;57608;0.000;0.000;2022-08-03T03:03:36;99271.59;;;24.94;41.46
70217;BME280;57608;0.000;0.000;2022-08-03T03:06:03;99273.78;;;24.90;41.71
70217;BME280;57608;0.000;0.000;2022-08-03T03:08:28;99280.66;;;24.84;41.99
70217;BME280;57608;0.000;0.000;2022-08-03T03:10:59;99271.31;;;24.80;41.68
70217;BME280;57608;0.000;0.000;2022-08-03T03:13:27;99285.69;;;24.87;41.78
70217;BME280;57608;0.000;0.000;2022-08-03T03:15:59;99282.81;;;24.89;41.61
70217;BME280;57608;0.000;0.000;2022-08-03T03:18:27;99282.16;;;24.95;41.82
70217;BME280;57608;0.000;0.000;2022-08-03T03:20:54;99279.81;;;25.00;41.93
70217;BME280;57608;0.000;0.000;2022-08-03T03:23:21;99279.31;;;25.05;41.81
70217;BME280;57608;0.000;0.000;2022-08-03T03:25:48;99284.31;;;25.08;41.62
70217;BME280;57608;0.000;0.000;2022-08-03T03:28:14;99283.31;;;25.09;41.38
70217;BME280;57608;0.000;0.000;2022-08-03T03:30:39;99291.84;;;25.13;41.54
70217;BME280;57608;0.000;0.000;2022-08-03T03:33:05;99287.50;;;25.12;41.64
70217;BME280;57608;0.000;0.000;2022-08-03T03:35:31;99292.50;;;25.15;41.67
70217;BME280;57608;0.000;0.000;2022-08-03T03:37:57;99292.19;;;25.18;41.67
70217;BME280;57608;0.000;0.000;2022-08-03T03:40:23;99288.31;;;25.20;41.19
70217;BME280;57608;0.000;0.000;2022-08-03T03:42:51;99296.66;;;25.26;41.18
70217;BME280;57608;0.000;0.000;2022-08-03T03:45:18;99301.69;;;25.29;41.43
70217;BME280;57608;0.000;0.000;2022-08-03T03:47:44;99294.16;;;25.32;41.24
70217;BME280;57608;0.000;0.000;2022-08-03T03:50:10;99287.44;;;25.28;41.31
70217;BME280;57608;0.000;0.000;2022-08-03T03:52:36;99292.47;;;25.31;41.42
70217;BME280;57608;0.000;0.000;2022-08-03T03:55:02;99302.00;;;25.34;41.23
70217;BME280;57608;0.000;0.000;2022-08-03T03:57:27;99305.53;;;25.34;41.54
70217;BME280;57608;0.000;0.000;2022-08-03T03:59:53;99301.16;;;25.33;41.61
70217;BME280;57608;0.000;0.000;2022-08-03T04:02:19;99291.97;;;25.28;41.52
70217;BME280;57608;0.000;0.000;2022-08-03T04:04:44;99295.16;;;25.23;42.13
70217;BME280;57608;0.000;0.000;2022-08-03T04:07:34;99302.41;;;25.14;42.25
70217;BME280;57608;0.000;0.000;2022-08-03T04:10:21;99304.94;;;25.07;42.37
70217;BME280;57608;0.000;0.000;2022-08-03T04:13:08;99302.91;;;25.01;42.50
70217;BME280;57608;0.000;0.000;2022-08-03T04:15:37;99310.63;;;24.96;42.64
70217;BME280;57608;0.000;0.000;2022-08-03T04:18:05;99308.94;;;24.95;42.55
70217;BME280;57608;0.000;0.000;2022-08-03T04:20:34;99309.63;;;24.97;42.78
70217;BME280;57608;0.000;0.000;2022-08-03T04:23:02;99312.97;;;24.99;42.62
70217;BME280;57608;0.000;0.000;2022-08-03T04:25:30;99310.97;;;25.01;42.28
70217;BME280;57608;0.000;0.000;2022-08-03T04:27:59;99317.28;;;25.08;42.39
70217;BME280;57608;0.000;0.000;2022-08-03T04:30:27;99306.59;;;25.17;42.27
70217;BME280;57608;0.000;0.000;2022-08-03T04:32:55;99311.09;;;25.24;42.12
70217;BME280;57608;0.000;0.000;2022-08-03T04:35:23;99316.25;;;25.34;41.91
70217;BME280;57608;0.000;0.000;2022-08-03T04:37:51;99307.56;;;25.40;42.02
70217;BME280;57608;0.000;0.000;2022-08-03T04:40:29;99309.22;;;25.42;42.24
70217;BME280;57608;0.000;0.000;2022-08-03T04:42:57;99306.72;;;25.40;42.30
70217;BME280;57608;0.000;0.000;2022-08-03T04:45:29;99306.72;;;25.40;41.84
70217;BME280;57608;0.000;0.000;2022-08-03T04:47:55;99318.59;;;25.46;41.94
70217;BME280;57608;0.000;0.000;2022-08-03T04:50:21;99312.56;;;25.52;41.63
70217;BME280;57608;0.000;0.000;2022-08-03T04:52:47;99312.50;;;25.60;41.80
70217;BME280;57608;0.000;0.000;2022-08-03T04:55:27;99316.84;;;25.69;41.92
70217;BME280;57608;0.000;0.000;2022-08-03T04:57:52;99312.47;;;25.77;41.36
70217;BME280;57608;0.000;0.000;2022-08-03T05:00:18;99313.41;;;25.84;41.50
70217;BME280;57608;0.000;0.000;2022-08-03T05:02:43;99313.72;;;25.89;41.61
70217;BME280;57608;0.000;0.000;2022-08-03T05:05:09;99314.91;;;25.95;41.42
70217;BME280;57608;0.000;0.000;2022-08-03T05:07:36;99306.28;;;25.99;41.35
70217;BME280;57608;0.000;0.000;2022-08-03T05:10:03;99313.88;;;26.04;41.38
70217;BME280;57608;0.000;0.000;2022-08-03T05:12:29;99312.50;;;26.08;41.12
70217;BME280;57608;0.000;0.000;2022-08-03T05:14:54;99309.63;;;26.10;41.36
70217;BME280;57608;0.000;0.000;2022-08-03T05:17:22;99309.94;;;26.15;41.09
70217;BME280;57608;0.000;0.000;2022-08-03T05:19:48;99318.28;;;26.20;41.08
70217;BME280;57608;0.000;0.000;2022-08-03T05:22:13;99311.72;;;26.22;41.07
70217;BME280;57608;0.000;0.000;2022-08-03T05:24:38;99317.00;;;26.39;40.26
70217;BME280;57608;0.000;0.000;2022-08-03T05:27:06;99318.06;;;26.53;40.26
70217;BME280;57608;0.000;0.000;2022-08-03T05:29:32;99322.53;;;26.61;40.15
70217;BME280;57608;0.000;0.000;2022-08-03T05:31:57;99324.69;;;26.65;40.04
70217;BME280;57608;0.000;0.000;2022-08-03T05:34:23;99327.75;;;26.62;39.96
70217;BME280;57608;0.000;0.000;2022-08-03T05:36:48;99315.50;;;26.60;40.06
70217;BME280;57608;0.000;0.000;2022-08-03T05:39:13;99325.59;;;26.58;40.25
70217;BME280;57608;0.000;0.000;2022-08-03T05:41:39;99323.81;;;26.50;40.15
70217;BME280;57608;0.000;0.000;2022-08-03T05:44:04;99329.88;;;26.44;40.35
70217;BME280;57608;0.000;0.000;2022-08-03T05:46:30;99326.06;;;26.38;40.55
70217;BME280;57608;0.000;0.000;2022-08-03T05:48:56;99329.28;;;26.33;40.32
70217;BME280;57608;0.000;0.000;2022-08-03T05:51:21;99330.66;;;26.29;40.44
70217;BME280;57608;0.000;0.000;2022-08-03T05:53:47;99329.34;;;26.25;40.68
70217;BME280;57608;0.000;0.000;2022-08-03T05:56:13;99321.66;;;26.22;40.63
70217;BME280;57608;0.000;0.000;2022-08-03T05:58:38;99323.66;;;26.20;40.68
70217;BME280;57608;0.000;0.000;2022-08-03T06:01:04;99329.03;;;26.20;40.97
70217;BME280;57608;0.000;0.000;2022-08-03T06:03:29;99331.53;;;26.21;40.67
70217;BME280;57608;0.000;0.000;2022-08-03T06:05:55;99328.53;;;26.25;40.93
70217;BME280;57608;0.000;0.000;2022-08-03T06:08:21;99324.66;;;26.27;41.01
70217;BME280;57608;0.000;0.000;2022-08-03T06:10:46;99324.28;;;26.30;40.67
70217;BME280;57608;0.000;0.000;2022-08-03T06:13:12;99327.44;;;26.34;40.56
70217;BME280;57608;0.000;0.000;2022-08-03T06:15:37;99328.09;;;26.36;40.63
70217;BME280;57608;0.000;0.000;2022-08-03T06:18:03;99326.06;;;26.38;40.96
70217;BME280;57608;0.000;0.000;2022-08-03T06:20:28;99330.91;;;26.43;40.96
70217;BME280;57608;0.000;0.000;2022-08-03T06:22:54;99322.50;;;26.46;40.98
70217;BME280;57608;0.000;0.000;2022-08-03T06:25:20;99326.31;;;26.51;41.07
70217;BME280;57608;0.000;0.000;2022-08-03T06:27:45;99325.78;;;26.56;40.88
70217;BME280;57608;0.000;0.000;2022-08-03T06:30:12;99328.94;;;26.60;40.98
70217;BME280;57608;0.000;0.000;2022-08-03T06:32:40;99331.94;;;26.65;41.09
70217;BME280;57608;0.000;0.000;2022-08-03T06:35:07;99332.72;;;26.74;41.34
70217;BME280;57608;0.000;0.000;2022-08-03T06:37:44;99338.38;;;26.79;40.62
70217;BME280;57608;0.000;0.000;2022-08-03T06:40:12;99338.50;;;26.85;41.13
70217;BME280;57608;0.000;0.000;2022-08-03T06:42:40;99335.66;;;26.87;41.42
70217;BME280;57608;0.000;0.000;2022-08-03T06:45:07;99339.63;;;26.91;40.86
70217;BME280;57608;0.000;0.000;2022-08-03T06:47:38;99333.06;;;26.94;40.40
70217;BME280;57608;0.000;0.000;2022-08-03T06:50:05;99334.75;;;26.95;40.52
70217;BME280;57608;0.000;0.000;2022-08-03T06:52:31;99330.84;;;26.97;40.79
70217;BME280;57608;0.000;0.000;2022-08-03T06:54:57;99340.38;;;27.00;40.62
70217;BME280;57608;0.000;0.000;2022-08-03T06:57:23;99337.53;;;27.01;40.60
70217;BME280;57608;0.000;0.000;2022-08-03T06:59:48;99341.34;;;27.07;40.20
70217;BME280;57608;0.000;0.000;2022-08-03T07:02:13;99339.47;;;27.08;40.39
70217;BME280;57608;0.000;0.000;2022-08-03T07:04:39;99340.31;;;27.08;40.18
70217;BME280;57608;0.000;0.000;2022-08-03T07:07:04;99337.16;;;27.04;40.00
70217;BME280;57608;0.000;0.000;2022-08-03T07:09:32;99331.50;;;26.99;39.91
70217;BME280;57608;0.000;0.000;2022-08-03T07:11:58;99333.59;;;26.89;39.69
70217;BME280;57608;0.000;0.000;2022-08-03T07:14:23;99339.69;;;26.83;40.10
70217;BME280;57608;0.000;0.000;2022-08-03T07:16:49;99338.75;;;26.76;39.69
70217;BME280;57608;0.000;0.000;2022-08-03T07:19:14;99336.13;;;26.67;39.75
70217;BME280;57608;0.000;0.000;2022-08-03T07:21:40;99340.53;;;26.60;39.81
70217;BME280;57608;0.000;0.000;2022-08-03T07:24:09;99340.41;;;26.53;39.61
70217;BME280;57608;0.000;0.000;2022-08-03T07:26:35;99345.47;;;26.48;39.80
70217;BME280;57608;0.000;0.000;2022-08-03T07:29:00;99342.31;;;26.45;40.07
70217;BME280;57608;0.000;0.000;2022-08-03T07:31:26;99346.00;;;26.44;39.67
70217;BME280;57608;0.000;0.000;2022-08-03T07:33:51;99341.28;;;26.46;39.99
70217;BME280;57608;0.000;0.000;2022-08-03T07:36:17;99347.50;;;26.46;39.89
70217;BME280;57608;0.000;0.000;2022-08-03T07:38:42;99352.34;;;26.51;40.00
70217;BME280;57608;0.000;0.000;2022-08-03T07:41:08;99347.47;;;26.54;39.67
70217;BME280;57608;0.000;0.000;2022-08-03T07:43:33;99339.84;;;26.58;40.17
70217;BME280;57608;0.000;0.000;2022-08-03T07:45:59;99345.19;;;26.66;40.16
70217;BME280;57608;0.000;0.000;2022-08-03T07:48:24;99349.84;;;26.73;39.89
70217;BME280;57608;0.000;0.000;2022-08-03T07:50:50;99348.50;;;26.77;39.86
70217;BME280;57608;0.000;0.000;2022-08-03T07:53:17;99350.81;;;26.80;39.80
70217;BME280;57608;0.000;0.000;2022-08-03T07:55:42;99359.19;;;26.85;38.98
70217;BME280;57608;0.000;0.000;2022-08-03T07:58:10;99358.16;;;26.86;39.02
70217;BME280;57608;0.000;0.000;2022-08-03T08:00:37;99352.78;;;26.86;39.25
70217;BME280;57608;0.000;0.000;2022-08-03T08:03:03;99365.50;;;26.92;39.20
70217;BME280;57608;0.000;0.000;2022-08-03T08:05:29;99357.06;;;26.95;38.87
70217;BME280;57608;0.000;0.000;2022-08-03T08:07:55;99361.25;;;26.98;39.07
70217;BME280;57608;0.000;0.000;2022-08-03T08:10:21;99348.63;;;26.98;38.86
70217;BME280;57608;0.000;0.000;2022-08-03T08:12:47;99360.06;;;27.00;38.97
70217;BME280;57608;0.000;0.000;2022-08-03T08:15:12;99359.38;;;26.98;38.82
70217;BME280;57608;0.000;0.000;2022-08-03T08:17:49;99365.63;;;26.99;38.52
70217;BME280;57608;0.000;0.000;2022-08-03T08:20:24;99367.47;;;26.98;38.36
70217;BME280;57608;0.000;0.000;2022-08-03T08:22:50;99364.75;;;26.98;38.26
70217;BME280;57608;0.000;0.000;2022-08-03T08:25:15;99363.13;;;26.97;38.28
70217;BME280;57608;0.000;0.000;2022-08-03T08:27:47;99365.81;;;26.97;38.32
70217;BME280;57608;0.000;0.000;2022-08-03T08:30:15;99361.44;;;26.96;38.75
70217;BME280;57608;0.000;0.000;2022-08-03T08:32:40;99358.94;;;26.95;38.56
70217;BME280;57608;0.000;0.000;2022-08-03T08:35:07;99357.25;;;26.94;38.42
70217;BME280;57608;0.000;0.000;2022-08-03T08:37:34;99351.78;;;26.87;38.45
70217;BME280;57608;0.000;0.000;2022-08-03T08:40:00;99352.50;;;26.81;38.57
70217;BME280;57608;0.000;0.000;2022-08-03T08:42:25;99355.22;;;26.73;38.73
70217;BME280;57608;0.000;0.000;2022-08-03T08:44:51;99352.56;;;26.64;38.67
70217;BME280;57608;0.000;0.000;2022-08-03T08:47:24;99348.66;;;26.52;38.33
70217;BME280;57608;0.000;0.000;2022-08-03T08:49:53;99355.38;;;26.48;38.62
70217;BME280;57608;0.000;0.000;2022-08-03T08:52:27;99367.50;;;26.44;38.75
70217;BME280;57608;0.000;0.000;2022-08-03T08:54:58;99351.94;;;26.39;38.79
70217;BME280;57608;0.000;0.000;2022-08-03T08:57:28;99355.81;;;26.36;38.89
70217;BME280;57608;0.000;0.000;2022-08-03T08:59:55;99358.31;;;26.38;39.01
70217;BME280;57608;0.000;0.000;2022-08-03T09:02:24;99357.94;;;26.41;39.17
70217;BME280;57608;0.000;0.000;2022-08-03T09:04:53;99358.44;;;26.45;39.05
70217;BME280;57608;0.000;0.000;2022-08-03T09:07:19;99365.97;;;26.49;38.60
70217;BME280;57608;0.000;0.000;2022-08-03T09:09:45;99363.09;;;26.51;38.42
70217;BME280;57608;0.000;0.000;2022-08-03T09:12:11;99365.78;;;26.51;38.46
70217;BME280;57608;0.000;0.000;2022-08-03T09:14:39;99359.72;;;26.49;38.03
70217;BME280;57608;0.000;0.000;2022-08-03T09:17:05;99354.72;;;26.46;38.34
70217;BME280;57608;0.000;0.000;2022-08-03T09:19:33;99357.59;;;26.44;38.21
70217;BME280;57608;0.000;0.000;2022-08-03T09:22:13;99367.16;;;26.47;38.54
70217;BME280;57608;0.000;0.000;2022-08-03T09:24:58;99366.41;;;26.53;38.69
70217;BME280;57608;0.000;0.000;2022-08-03T09:27:24;99364.03;;;26.58;38.87
70217;BME280;57608;0.000;0.000;2022-08-03T09:29:55;99368.50;;;26.66;38.80
70217;BME280;57608;0.000;0.000;2022-08-03T09:32:23;99366.97;;;26.71;38.69
70217;BME280;57608;0.000;0.000;2022-08-03T09:34:51;99367.31;;;26.77;38.57
70217;BME280;57608;0.000;0.000;2022-08-03T09:37:19;99366.94;;;26.80;38.58
70217;BME280;57608;0.000;0.000;2022-08-03T09:39:46;99368.25;;;26.84;38.59
70217;BME280;57608;0.000;0.000;2022-08-03T09:42:15;99364.19;;;26.88;38.56
70217;BME280;57608;0.000;0.000;2022-08-03T09:44:49;99374.59;;;26.91;38.78
70217;BME280;57608;0.000;0.000;2022-08-03T09:47:25;99366.34;;;26.93;38.69
70217;BME280;57608;0.000;0.000;2022-08-03T09:49:59;99366.16;;;26.94;38.50
70217;BME280;57608;0.000;0.000;2022-08-03T09:52:33;99364.94;;;26.97;38.24
70217;BME280;57608;0.000;0.000;2022-08-03T09:55:00;99366.81;;;26.96;38.20
70217;BME280;57608;0.000;0.000;2022-08-03T09:57:27;99363.94;;;26.98;38.20
70217;BME280;57608;0.000;0.000;2022-08-03T10:00:07;99370.13;;;26.98;38.21
70217;BME280;57608;0.000;0.000;2022-08-03T10:02:35;99363.75;;;26.99;38.04
70217;BME280;57608;0.000;0.000;2022-08-03T10:05:03;99365.44;;;27.00;38.24
70217;BME280;57608;0.000;0.000;2022-08-03T10:07:28;99358.38;;;26.99;38.29
70217;BME280;57608;0.000;0.000;2022-08-03T10:10:01;99361.88;;;27.00;38.26
70217;BME280;57608;0.000;0.000;2022-08-03T10:12:27;99364.75;;;26.98;38.33
70217;BME280;57608;0.000;0.000;2022-08-03T10:14:54;99356.69;;;26.98;38.36
70217;BME280;57608;0.000;0.000;2022-08-03T10:17:29;99366.53;;;26.91;38.15
70217;BME280;57608;0.000;0.000;2022-08-03T10:19:54;99373.63;;;26.84;38.31
70217;BME280;57608;0.000;0.000;2022-08-03T10:22:23;99365.81;;;26.74;38.38
70217;BME280;57608;0.000;0.000;2022-08-03T10:25:03;99364.19;;;26.65;38.43
70217;BME280;57608;0.000;0.000;2022-08-03T10:27:36;99366.09;;;26.56;38.40
70217;BME280;57608;0.000;0.000;2022-08-03T10:30:07;99373.16;;;26.49;38.25
70217;BME280;57608;0.000;0.000;2022-08-03T10:35:19;99364.69;;;26.37;38.38
70217;BME280;57608;0.000;0.000;2022-08-03T10:37:57;99368.22;;;26.37;38.54
70217;BME280;57608;0.000;0.000;2022-08-03T10:40:26;99373.22;;;26.41;38.72
70217;BME280;57608;0.000;0.000;2022-08-03T10:42:55;99368.50;;;26.43;38.41
70217;BME280;57608;0.000;0.000;2022-08-03T10:45:26;99376.22;;;26.46;38.21
70217;BME280;57608;0.000;0.000;2022-08-03T10:47:54;99378.72;;;26.47;38.18
70217;BME280;57608;0.000;0.000;2022-08-03T10:50:22;99377.53;;;26.50;38.20
70217;BME280;57608;0.000;0.000;2022-08-03T10:52:56;99379.41;;;26.49;38.20
70217;BME280;57608;0.000;0.000;2022-08-03T10:55:39;99372.88;;;26.44;37.94
70217;BME280;57608;0.000;0.000;2022-08-03T11:01:04;99376.91;;;26.39;38.37
70217;BME280;57608;0.000;0.000;2022-08-03T11:03:30;99369.53;;;26.42;38.49
70217;BME280;57608;0.000;0.000;2022-08-03T11:06:17;99373.34;;;26.47;38.43
70217;BME280;57608;0.000;0.000;2022-08-03T11:08:43;99373.66;;;26.52;38.18
70217;BME280;57608;0.000;0.000;2022-08-03T11:16:25;99376.56;;;26.66;38.07
70217;BME280;57608;0.000;0.000;2022-08-03T11:18:58;99379.56;;;26.71;38.01
70217;BME280;57608;0.000;0.000;2022-08-03T11:29:59;99373.44;;;26.85;38.23
70217;BME280;57608;0.000;0.000;2022-08-03T11:35:17;99376.59;;;26.89;37.99
70217;BME280;57608;0.000;0.000;2022-08-03T11:40:39;99370.59;;;26.87;37.70
70217;BME280;57608;0.000;0.000;2022-08-03T11:46:03;99365.84;;;26.89;37.90
70217;BME280;57608;0.000;0.000;2022-08-03T11:48:40;99367.53;;;26.90;37.67
70217;BME280;57608;0.000;0.000;2022-08-03T11:51:19;99366.53;;;26.91;37.49
70217;BME280;57608;0.000;0.000;2022-08-03T11:53:45;99371.91;;;26.91;37.67
70217;BME280;57608;0.000;0.000;2022-08-03T11:56:13;99367.53;;;26.90;37.34
70217;BME280;57608;0.000;0.000;2022-08-03T11:58:46;99371.22;;;26.89;37.50
70217;BME280;57608;0.000;0.000;2022-08-03T12:01:12;99366.56;;;26.83;37.47
70217;BME280;57608;0.000;0.000;2022-08-03T12:03:41;99371.84;;;26.76;37.39
70217;BME280;57608;0.000;0.000;2022-08-03T12:06:12;99370.53;;;26.72;37.42
70217;BME280;57608;0.000;0.000;2022-08-03T12:08:38;99357.94;;;26.64;37.52
70217;BME280;57608;0.000;0.000;2022-08-03T12:11:05;99359.50;;;26.59;38.10
70217;BME280;57608;0.000;0.000;2022-08-03T12:13:42;99362.72;;;26.54;37.99
70217;BME280;57608;0.000;0.000;2022-08-03T12:16:09;99365.78;;;26.51;38.29
70217;BME280;57608;0.000;0.000;2022-08-03T12:18:35;99362.44;;;26.49;38.08
70217;BME280;57608;0.000;0.000;2022-08-03T12:21:09;99359.72;;;26.49;37.80
70217;BME280;57608;0.000;0.000;2022-08-03T12:23:35;99361.03;;;26.53;37.99
70217;BME280;57608;0.000;0.000;2022-08-03T12:26:04;99359.03;;;26.55;37.73
70217;BME280;57608;0.000;0.000;2022-08-03T12:28:30;99358.66;;;26.58;38.14
70217;BME280;57608;0.000;0.000;2022-08-03T12:31:00;99353.59;;;26.63;38.04
70217;BME280;57608;0.000;0.000;2022-08-03T12:33:26;99354.75;;;26.69;38.17
70217;BME280;57608;0.000;0.000;2022-08-03T12:36:03;99356.91;;;26.74;38.17
70217;BME280;57608;0.000;0.000;2022-08-03T12:38:30;99359.06;;;26.78;38.13
70217;BME280;57608;0.000;0.000;2022-08-03T12:41:00;99359.53;;;26.82;38.08
70217;BME280;57608;0.000;0.000;2022-08-03T12:43:26;99353.78;;;26.85;38.18
70217;BME280;57608;0.000;0.000;2022-08-03T12:46:09;99362.97;;;26.91;37.93
70217;BME280;57608;0.000;0.000;2022-08-03T12:48:34;99366.34;;;26.93;37.85
70217;BME280;57608;0.000;0.000;2022-08-03T12:51:08;99364.31;;;26.95;38.06
70217;BME280;57608;0.000;0.000;2022-08-03T12:53:34;99363.13;;;26.97;38.11
70217;BME280;57608;0.000;0.000;2022-08-03T12:56:04;99359.38;;;26.98;37.97
70217;BME280;57608;0.000;0.000;2022-08-03T12:58:34;99368.13;;;27.00;37.86
70217;BME280;57608;0.000;0.000;2022-08-03T13:01:02;99371.44;;;27.02;37.97
70217;BME280;57608;0.000;0.000;2022-08-03T13:03:28;99368.75;;;27.02;38.01
70217;BME280;57608;0.000;0.000;2022-08-03T13:06:12;99376.47;;;27.06;37.93
70217;BME280;57608;0.000;0.000;2022-08-03T13:08:39;99371.09;;;27.06;37.90
70217;BME280;57608;0.000;0.000;2022-08-03T13:13:43;99370.63;;;27.02;37.69
70217;BME280;57608;0.000;0.000;2022-08-03T13:16:08;99371.44;;;27.02;37.95
70217;BME280;57608;0.000;0.000;2022-08-03T13:18:34;99373.13;;;27.03;37.87
70217;BME280;57608;0.000;0.000;2022-08-03T13:20:59;99377.50;;;27.04;37.93
70217;BME280;57608;0.000;0.000;2022-08-03T13:23:27;99376.81;;;27.02;38.13
70217;BME280;57608;0.000;0.000;2022-08-03T13:25:53;99371.19;;;26.97;37.68
70217;BME280;57608;0.000;0.000;2022-08-03T13:28:19;99369.22;;;26.91;38.03
70217;BME280;57608;0.000;0.000;2022-08-03T13:30:44;99363.88;;;26.83;37.80
70217;BME280;57608;0.000;0.000;2022-08-03T13:33:09;99364.78;;;26.75;38.17
70217;BME280;57608;0.000;0.000;2022-08-03T13:35:35;99367.13;;;26.70;37.95
70217;BME280;57608;0.000;0.000;2022-08-03T13:38:00;99371.75;;;26.61;37.93
70217;BME280;57608;0.000;0.000;2022-08-03T13:40:26;99360.88;;;26.54;38.07
70217;BME280;57608;0.000;0.000;2022-08-03T13:42:51;99359.56;;;26.50;38.22
70217;BME280;57608;0.000;0.000;2022-08-03T13:45:23;99358.06;;;26.48;38.62
70217;BME280;57608;0.000;0.000;2022-08-03T13:47:49;99363.09;;;26.51;38.38
70217;BME280;57608;0.000;0.000;2022-08-03T13:50:15;99359.41;;;26.52;38.62